sensor_id;sensor_type;location;lat;lon;timestamp;P1;durP1;ratioP1;P2;durP2;ratioP2
63312;SDS011;49442;45.640;13.812;2023-09-12T00:00:41;10.55;;;8.10;;
63312;SDS011;49442;45.640;13.812;2023-09-12T00:03:07;14.48;;;7.32;;
63312;SDS011;49442;45.640;13.812;2023-09-12T00:05:33;19.25;;;8.15;;
63312;SDS011;49442;45.640;13.812;2023-09-12T00:07:59;8.93;;;7.95;;
63312;SDS011;49442;45.640;13.812;2023-09-12T00:10:25;10.50;;;7.53;;
63312;SDS011;49442;45.640;13.812;2023-09-12T00:12:51;10.82;;;7.90;;
63312;SDS011;49442;45.640;13.812;2023-09-12T00:15:16;9.30;;;8.00;;
63312;SDS011;49442;45.640;13.812;2023-09-12T00:17:44;12.45;;;8.45;;
63312;SDS011;49442;45.640;13.812;2023-09-12T00:20:10;9.80;;;8.02;;
63312;SDS011;49442;45.640;13.812;2023-09-12T00:22:36;10.77;;;8.00;;
63312;SDS011;49442;45.640;13.812;2023-09-12T00:25:02;13.68;;;8.93;;
63312;SDS011;49442;45.640;13.812;2023-09-12T00:27:28;9.40;;;8.43;;
63312;SDS011;49442;45.640;13.812;2023-09-12T00:29:54;15.00;;;8.00;;
63312;SDS011;49442;45.640;13.812;2023-09-12T00:32:19;12.82;;;8.27;;
63312;SDS011;49442;45.640;13.812;2023-09-12T00:34:45;10.63;;;8.25;;
63312;SDS011;49442;45.640;13.812;2023-09-12T00:37:11;11.95;;;8.77;;
63312;SDS011;49442;45.640;13.812;2023-09-12T00:39:37;9.52;;;7.88;;
63312;SDS011;49442;45.640;13.812;2023-09-12T00:42:02;9.48;;;8.43;;
63312;SDS011;49442;45.640;13.812;2023-09-12T00:44:28;10.30;;;8.98;;
63312;SDS011;49442;45.640;13.812;2023-09-12T00:46:54;12.13;;;8.80;;
63312;SDS011;49442;45.640;13.812;2023-09-12T00:49:22;13.70;;;8.32;;
63312;SDS011;49442;45.640;13.812;2023-09-12T00:51:50;11.13;;;9.00;;
63312;SDS011;49442;45.640;13.812;2023-09-12T00:54:16;10.27;;;9.18;;
63312;SDS011;49442;45.640;13.812;2023-09-12T00:56:42;11.10;;;8.82;;
63312;SDS011;49442;45.640;13.812;2023-09-12T00:59:08;11.75;;;9.13;;
63312;SDS011;49442;45.640;13.812;2023-09-12T01:01:34;18.02;;;9.98;;
63312;SDS011;49442;45.640;13.812;2023-09-12T01:04:01;11.80;;;9.35;;
63312;SDS011;49442;45.640;13.812;2023-09-12T01:06:27;12.98;;;9.27;;
63312;SDS011;49442;45.640;13.812;2023-09-12T01:08:57;14.55;;;9.85;;
63312;SDS011;49442;45.640;13.812;2023-09-12T01:11:22;19.88;;;9.57;;
63312;SDS011;49442;45.640;13.812;2023-09-12T01:13:49;15.93;;;9.73;;
63312;SDS011;49442;45.640;13.812;2023-09-12T01:16:15;14.02;;;9.90;;
63312;SDS011;49442;45.640;13.812;2023-09-12T01:18:40;12.20;;;9.38;;
63312;SDS011;49442;45.640;13.812;2023-09-12T01:21:12;10.88;;;9.45;;
63312;SDS011;49442;45.640;13.812;2023-09-12T01:27:21;12.85;;;9.25;;
63312;SDS011;49442;45.640;13.812;2023-09-12T01:29:56;13.25;;;8.77;;
63312;SDS011;49442;45.640;13.812;2023-09-12T01:32:24;14.68;;;10.32;;
63312;SDS011;49442;45.640;13.812;2023-09-12T01:34:50;11.93;;;9.65;;
63312;SDS011;49442;45.640;13.812;2023-09-12T01:37:16;12.23;;;10.00;;
63312;SDS011;49442;45.640;13.812;2023-09-12T01:39:42;13.15;;;9.38;;
63312;SDS011;49442;45.640;13.812;2023-09-12T01:42:13;13.82;;;9.85;;
63312;SDS011;49442;45.640;13.812;2023-09-12T01:44:44;12.80;;;9.38;;
63312;SDS011;49442;45.640;13.812;2023-09-12T01:47:12;12.05;;;9.35;;
63312;SDS011;49442;45.640;13.812;2023-09-12T01:49:42;13.00;;;9.70;;
63312;SDS011;49442;45.640;13.812;2023-09-12T01:52:12;12.65;;;9.75;;
63312;SDS011;49442;45.640;13.812;2023-09-12T01:54:39;11.13;;;9.73;;
63312;SDS011;49442;45.640;13.812;2023-09-12T01:57:06;10.23;;;9.18;;
63312;SDS011;49442;45.640;13.812;2023-09-12T01:59:33;13.27;;;10.23;;
63312;SDS011;49442;45.640;13.812;2023-09-12T02:01:59;10.85;;;9.70;;
63312;SDS011;49442;45.640;13.812;2023-09-12T02:04:25;9.98;;;8.98;;
63312;SDS011;49442;45.640;13.812;2023-09-12T02:06:50;12.35;;;9.90;;
63312;SDS011;49442;45.640;13.812;2023-09-12T02:09:16;11.40;;;9.23;;
63312;SDS011;49442;45.640;13.812;2023-09-12T02:11:42;10.98;;;9.88;;
63312;SDS011;49442;45.640;13.812;2023-09-12T02:14:08;11.63;;;9.65;;
63312;SDS011;49442;45.640;13.812;2023-09-12T02:16:35;10.05;;;9.02;;
63312;SDS011;49442;45.640;13.812;2023-09-12T02:19:05;13.32;;;10.05;;
63312;SDS011;49442;45.640;13.812;2023-09-12T02:21:31;11.05;;;9.88;;
63312;SDS011;49442;45.640;13.812;2023-09-12T02:23:57;13.80;;;10.25;;
63312;SDS011;49442;45.640;13.812;2023-09-12T02:26:22;13.13;;;9.90;;
63312;SDS011;49442;45.640;13.812;2023-09-12T02:28:48;11.65;;;10.32;;
63312;SDS011;49442;45.640;13.812;2023-09-12T02:31:14;14.25;;;9.93;;
63312;SDS011;49442;45.640;13.812;2023-09-12T02:33:39;12.40;;;9.93;;
63312;SDS011;49442;45.640;13.812;2023-09-12T02:36:05;10.73;;;9.68;;
63312;SDS011;49442;45.640;13.812;2023-09-12T02:38:31;13.85;;;9.50;;
63312;SDS011;49442;45.640;13.812;2023-09-12T02:40:57;12.43;;;9.43;;
63312;SDS011;49442;45.640;13.812;2023-09-12T02:43:23;10.88;;;9.63;;
63312;SDS011;49442;45.640;13.812;2023-09-12T02:45:49;10.57;;;9.57;;
63312;SDS011;49442;45.640;13.812;2023-09-12T02:48:15;11.73;;;10.23;;
63312;SDS011;49442;45.640;13.812;2023-09-12T02:50:40;11.20;;;10.00;;
63312;SDS011;49442;45.640;13.812;2023-09-12T02:53:06;15.35;;;10.93;;
63312;SDS011;49442;45.640;13.812;2023-09-12T02:55:32;11.95;;;9.57;;
63312;SDS011;49442;45.640;13.812;2023-09-12T02:57:58;16.85;;;9.77;;
63312;SDS011;49442;45.640;13.812;2023-09-12T03:00:24;13.52;;;10.27;;
63312;SDS011;49442;45.640;13.812;2023-09-12T03:02:49;12.25;;;10.10;;
63312;SDS011;49442;45.640;13.812;2023-09-12T03:05:15;11.88;;;10.60;;
63312;SDS011;49442;45.640;13.812;2023-09-12T03:07:41;13.45;;;10.52;;
63312;SDS011;49442;45.640;13.812;2023-09-12T03:10:07;11.57;;;10.05;;
63312;SDS011;49442;45.640;13.812;2023-09-12T03:12:33;11.10;;;10.00;;
63312;SDS011;49442;45.640;13.812;2023-09-12T03:15:01;11.93;;;9.57;;
63312;SDS011;49442;45.640;13.812;2023-09-12T03:17:28;11.07;;;9.98;;
63312;SDS011;49442;45.640;13.812;2023-09-12T03:19:54;12.68;;;9.82;;
63312;SDS011;49442;45.640;13.812;2023-09-12T03:22:19;13.32;;;10.27;;
63312;SDS011;49442;45.640;13.812;2023-09-12T03:24:45;11.38;;;9.85;;
63312;SDS011;49442;45.640;13.812;2023-09-12T03:27:11;14.23;;;10.20;;
63312;SDS011;49442;45.640;13.812;2023-09-12T03:29:36;13.27;;;9.27;;
63312;SDS011;49442;45.640;13.812;2023-09-12T03:32:02;13.55;;;9.90;;
63312;SDS011;49442;45.640;13.812;2023-09-12T03:34:28;12.68;;;10.10;;
63312;SDS011;49442;45.640;13.812;2023-09-12T03:36:54;10.85;;;9.75;;
63312;SDS011;49442;45.640;13.812;2023-09-12T03:39:20;12.35;;;9.50;;
63312;SDS011;49442;45.640;13.812;2023-09-12T03:41:45;12.00;;;10.73;;
63312;SDS011;49442;45.640;13.812;2023-09-12T03:44:11;10.63;;;9.52;;
63312;SDS011;49442;45.640;13.812;2023-09-12T03:46:37;12.25;;;9.93;;
63312;SDS011;49442;45.640;13.812;2023-09-12T03:49:03;13.00;;;10.38;;
63312;SDS011;49442;45.640;13.812;2023-09-12T03:51:28;14.20;;;10.27;;
63312;SDS011;49442;45.640;13.812;2023-09-12T03:53:54;10.43;;;9.43;;
63312;SDS011;49442;45.640;13.812;2023-09-12T03:56:20;11.00;;;9.77;;
63312;SDS011;49442;45.640;13.812;2023-09-12T03:58:45;13.65;;;11.07;;
63312;SDS011;49442;45.640;13.812;2023-09-12T04:01:11;12.70;;;10.27;;
63312;SDS011;49442;45.640;13.812;2023-09-12T04:03:37;12.80;;;9.85;;
63312;SDS011;49442;45.640;13.812;2023-09-12T04:06:03;11.18;;;9.98;;
63312;SDS011;49442;45.640;13.812;2023-09-12T04:08:29;16.60;;;10.00;;
63312;SDS011;49442;45.640;13.812;2023-09-12T04:10:55;11.73;;;10.57;;
63312;SDS011;49442;45.640;13.812;2023-09-12T04:13:20;12.15;;;10.55;;
63312;SDS011;49442;45.640;13.812;2023-09-12T04:15:46;11.90;;;10.65;;
63312;SDS011;49442;45.640;13.812;2023-09-12T04:18:12;12.07;;;9.98;;
63312;SDS011;49442;45.640;13.812;2023-09-12T04:20:37;13.00;;;9.98;;
63312;SDS011;49442;45.640;13.812;2023-09-12T04:23:03;12.70;;;10.38;;
63312;SDS011;49442;45.640;13.812;2023-09-12T04:25:29;16.20;;;11.57;;
63312;SDS011;49442;45.640;13.812;2023-09-12T04:27:55;10.98;;;9.75;;
63312;SDS011;49442;45.640;13.812;2023-09-12T04:30:21;14.27;;;10.38;;
63312;SDS011;49442;45.640;13.812;2023-09-12T04:32:47;11.63;;;10.43;;
63312;SDS011;49442;45.640;13.812;2023-09-12T04:35:12;12.32;;;10.23;;
63312;SDS011;49442;45.640;13.812;2023-09-12T04:37:38;12.32;;;11.13;;
63312;SDS011;49442;45.640;13.812;2023-09-12T04:40:04;13.57;;;9.10;;
63312;SDS011;49442;45.640;13.812;2023-09-12T04:42:31;11.77;;;9.95;;
63312;SDS011;49442;45.640;13.812;2023-09-12T04:44:57;10.93;;;9.52;;
63312;SDS011;49442;45.640;13.812;2023-09-12T04:47:23;10.93;;;9.85;;
63312;SDS011;49442;45.640;13.812;2023-09-12T04:49:49;11.35;;;10.15;;
63312;SDS011;49442;45.640;13.812;2023-09-12T04:52:15;12.02;;;10.70;;
63312;SDS011;49442;45.640;13.812;2023-09-12T04:54:40;13.15;;;10.05;;
63312;SDS011;49442;45.640;13.812;2023-09-12T04:57:07;16.20;;;10.48;;
63312;SDS011;49442;45.640;13.812;2023-09-12T04:59:33;13.13;;;10.43;;
63312;SDS011;49442;45.640;13.812;2023-09-12T05:01:59;11.38;;;10.10;;
63312;SDS011;49442;45.640;13.812;2023-09-12T05:04:24;15.38;;;11.07;;
63312;SDS011;49442;45.640;13.812;2023-09-12T05:06:50;17.58;;;10.13;;
63312;SDS011;49442;45.640;13.812;2023-09-12T05:09:16;20.13;;;11.15;;
63312;SDS011;49442;45.640;13.812;2023-09-12T05:11:41;14.30;;;10.27;;
63312;SDS011;49442;45.640;13.812;2023-09-12T05:14:07;29.13;;;11.57;;
63312;SDS011;49442;45.640;13.812;2023-09-12T05:16:33;58.15;;;11.82;;
63312;SDS011;49442;45.640;13.812;2023-09-12T05:18:58;36.22;;;11.02;;
63312;SDS011;49442;45.640;13.812;2023-09-12T05:21:24;56.53;;;11.35;;
63312;SDS011;49442;45.640;13.812;2023-09-12T05:23:50;21.20;;;10.73;;
63312;SDS011;49442;45.640;13.812;2023-09-12T05:26:16;14.45;;;10.02;;
63312;SDS011;49442;45.640;13.812;2023-09-12T05:28:42;15.43;;;11.40;;
63312;SDS011;49442;45.640;13.812;2023-09-12T05:31:07;13.35;;;9.88;;
63312;SDS011;49442;45.640;13.812;2023-09-12T05:33:33;21.13;;;11.45;;
63312;SDS011;49442;45.640;13.812;2023-09-12T05:36:00;17.63;;;10.55;;
63312;SDS011;49442;45.640;13.812;2023-09-12T05:38:25;21.23;;;10.85;;
63312;SDS011;49442;45.640;13.812;2023-09-12T05:40:51;22.48;;;10.68;;
63312;SDS011;49442;45.640;13.812;2023-09-12T05:43:18;19.30;;;10.27;;
63312;SDS011;49442;45.640;13.812;2023-09-12T05:45:43;37.17;;;11.18;;
63312;SDS011;49442;45.640;13.812;2023-09-12T05:48:10;67.10;;;12.55;;
63312;SDS011;49442;45.640;13.812;2023-09-12T05:50:39;21.23;;;10.90;;
63312;SDS011;49442;45.640;13.812;2023-09-12T05:53:04;18.17;;;10.98;;
63312;SDS011;49442;45.640;13.812;2023-09-12T05:55:30;15.40;;;11.23;;
63312;SDS011;49442;45.640;13.812;2023-09-12T05:57:56;14.38;;;10.40;;
63312;SDS011;49442;45.640;13.812;2023-09-12T06:00:21;17.90;;;10.38;;
63312;SDS011;49442;45.640;13.812;2023-09-12T06:02:47;13.95;;;9.88;;
63312;SDS011;49442;45.640;13.812;2023-09-12T06:05:13;20.73;;;10.15;;
63312;SDS011;49442;45.640;13.812;2023-09-12T06:07:40;17.65;;;9.60;;
63312;SDS011;49442;45.640;13.812;2023-09-12T06:10:06;15.75;;;10.18;;
63312;SDS011;49442;45.640;13.812;2023-09-12T06:12:32;26.38;;;9.98;;
63312;SDS011;49442;45.640;13.812;2023-09-12T06:15:01;19.58;;;10.10;;
63312;SDS011;49442;45.640;13.812;2023-09-12T06:17:29;15.63;;;10.07;;
63312;SDS011;49442;45.640;13.812;2023-09-12T06:19:55;12.88;;;9.82;;
63312;SDS011;49442;45.640;13.812;2023-09-12T06:22:21;20.05;;;11.00;;
63312;SDS011;49442;45.640;13.812;2023-09-12T06:24:48;21.40;;;9.93;;
63312;SDS011;49442;45.640;13.812;2023-09-12T06:27:15;12.98;;;10.40;;
63312;SDS011;49442;45.640;13.812;2023-09-12T06:29:46;17.50;;;10.32;;
63312;SDS011;49442;45.640;13.812;2023-09-12T06:32:17;11.32;;;9.43;;
63312;SDS011;49442;45.640;13.812;2023-09-12T06:34:43;14.57;;;10.30;;
63312;SDS011;49442;45.640;13.812;2023-09-12T06:37:10;16.25;;;10.38;;
63312;SDS011;49442;45.640;13.812;2023-09-12T06:39:37;23.27;;;9.90;;
63312;SDS011;49442;45.640;13.812;2023-09-12T06:42:02;14.93;;;10.57;;
63312;SDS011;49442;45.640;13.812;2023-09-12T06:44:28;21.15;;;10.48;;
63312;SDS011;49442;45.640;13.812;2023-09-12T06:46:54;11.23;;;8.85;;
63312;SDS011;49442;45.640;13.812;2023-09-12T06:49:20;11.30;;;9.73;;
63312;SDS011;49442;45.640;13.812;2023-09-12T06:51:45;22.60;;;8.95;;
63312;SDS011;49442;45.640;13.812;2023-09-12T06:54:11;16.45;;;9.95;;
63312;SDS011;49442;45.640;13.812;2023-09-12T06:56:37;16.98;;;9.80;;
63312;SDS011;49442;45.640;13.812;2023-09-12T06:59:03;9.95;;;8.80;;
63312;SDS011;49442;45.640;13.812;2023-09-12T07:01:30;15.20;;;9.57;;
63312;SDS011;49442;45.640;13.812;2023-09-12T07:03:56;15.52;;;9.55;;
63312;SDS011;49442;45.640;13.812;2023-09-12T07:06:22;13.82;;;9.05;;
63312;SDS011;49442;45.640;13.812;2023-09-12T07:08:48;15.13;;;9.25;;
63312;SDS011;49442;45.640;13.812;2023-09-12T07:11:14;19.55;;;9.48;;
63312;SDS011;49442;45.640;13.812;2023-09-12T07:13:40;15.52;;;10.13;;
63312;SDS011;49442;45.640;13.812;2023-09-12T07:16:06;15.48;;;10.90;;
63312;SDS011;49442;45.640;13.812;2023-09-12T07:18:32;14.13;;;9.50;;
63312;SDS011;49442;45.640;13.812;2023-09-12T07:21:01;15.20;;;9.55;;
63312;SDS011;49442;45.640;13.812;2023-09-12T07:23:28;17.13;;;9.88;;
63312;SDS011;49442;45.640;13.812;2023-09-12T07:25:55;10.55;;;9.10;;
63312;SDS011;49442;45.640;13.812;2023-09-12T07:28:24;14.68;;;9.68;;
63312;SDS011;49442;45.640;13.812;2023-09-12T07:30:51;13.82;;;9.23;;
63312;SDS011;49442;45.640;13.812;2023-09-12T07:33:16;15.30;;;9.55;;
63312;SDS011;49442;45.640;13.812;2023-09-12T07:35:42;14.63;;;9.60;;
63312;SDS011;49442;45.640;13.812;2023-09-12T07:38:08;17.63;;;9.25;;
63312;SDS011;49442;45.640;13.812;2023-09-12T07:40:33;21.58;;;9.18;;
63312;SDS011;49442;45.640;13.812;2023-09-12T07:42:59;13.52;;;9.48;;
63312;SDS011;49442;45.640;13.812;2023-09-12T07:45:25;12.23;;;9.20;;
63312;SDS011;49442;45.640;13.812;2023-09-12T07:47:50;11.35;;;8.77;;
63312;SDS011;49442;45.640;13.812;2023-09-12T07:50:16;13.65;;;8.48;;
63312;SDS011;49442;45.640;13.812;2023-09-12T07:52:42;15.30;;;9.10;;
63312;SDS011;49442;45.640;13.812;2023-09-12T07:55:08;20.98;;;8.75;;
63312;SDS011;49442;45.640;13.812;2023-09-12T07:57:34;12.90;;;8.07;;
63312;SDS011;49442;45.640;13.812;2023-09-12T08:00:01;13.60;;;8.85;;
63312;SDS011;49442;45.640;13.812;2023-09-12T08:02:29;11.25;;;8.30;;
63312;SDS011;49442;45.640;13.812;2023-09-12T08:04:55;12.82;;;7.80;;
63312;SDS011;49442;45.640;13.812;2023-09-12T08:07:20;14.27;;;8.65;;
63312;SDS011;49442;45.640;13.812;2023-09-12T08:12:16;12.23;;;7.90;;
63312;SDS011;49442;45.640;13.812;2023-09-12T08:14:43;11.55;;;8.70;;
63312;SDS011;49442;45.640;13.812;2023-09-12T08:17:10;18.15;;;8.32;;
63312;SDS011;49442;45.640;13.812;2023-09-12T08:19:37;10.15;;;7.72;;
63312;SDS011;49442;45.640;13.812;2023-09-12T08:22:03;17.80;;;9.05;;
63312;SDS011;49442;45.640;13.812;2023-09-12T08:24:28;19.25;;;9.43;;
63312;SDS011;49442;45.640;13.812;2023-09-12T08:26:54;13.80;;;8.25;;
63312;SDS011;49442;45.640;13.812;2023-09-12T08:29:20;9.13;;;7.78;;
63312;SDS011;49442;45.640;13.812;2023-09-12T08:31:46;10.18;;;8.27;;
63312;SDS011;49442;45.640;13.812;2023-09-12T08:34:12;12.95;;;8.20;;
63312;SDS011;49442;45.640;13.812;2023-09-12T08:36:38;13.98;;;9.55;;
63312;SDS011;49442;45.640;13.812;2023-09-12T08:39:04;9.25;;;7.30;;
63312;SDS011;49442;45.640;13.812;2023-09-12T08:41:33;14.10;;;8.07;;
63312;SDS011;49442;45.640;13.812;2023-09-12T08:43:59;15.30;;;8.25;;
63312;SDS011;49442;45.640;13.812;2023-09-12T08:46:26;10.82;;;8.20;;
63312;SDS011;49442;45.640;13.812;2023-09-12T08:48:55;13.07;;;7.65;;
63312;SDS011;49442;45.640;13.812;2023-09-12T08:51:22;16.90;;;7.68;;
63312;SDS011;49442;45.640;13.812;2023-09-12T08:53:49;12.57;;;7.57;;
63312;SDS011;49442;45.640;13.812;2023-09-12T08:56:15;12.02;;;8.32;;
63312;SDS011;49442;45.640;13.812;2023-09-12T08:58:41;17.88;;;8.35;;
63312;SDS011;49442;45.640;13.812;2023-09-12T09:01:07;13.52;;;8.63;;
63312;SDS011;49442;45.640;13.812;2023-09-12T09:03:36;15.13;;;8.13;;
63312;SDS011;49442;45.640;13.812;2023-09-12T09:06:02;15.10;;;8.00;;
63312;SDS011;49442;45.640;13.812;2023-09-12T09:08:30;10.68;;;9.00;;
63312;SDS011;49442;45.640;13.812;2023-09-12T09:10:58;18.85;;;8.57;;
63312;SDS011;49442;45.640;13.812;2023-09-12T09:13:27;17.33;;;9.25;;
63312;SDS011;49442;45.640;13.812;2023-09-12T09:16:09;15.93;;;9.98;;
63312;SDS011;49442;45.640;13.812;2023-09-12T09:18:58;14.02;;;9.43;;
63312;SDS011;49442;45.640;13.812;2023-09-12T09:21:26;15.18;;;9.93;;
63312;SDS011;49442;45.640;13.812;2023-09-12T09:23:55;12.80;;;9.32;;
63312;SDS011;49442;45.640;13.812;2023-09-12T09:26:21;23.00;;;10.25;;
63312;SDS011;49442;45.640;13.812;2023-09-12T09:29:06;21.50;;;10.02;;
63312;SDS011;49442;45.640;13.812;2023-09-12T09:31:33;18.15;;;9.95;;
63312;SDS011;49442;45.640;13.812;2023-09-12T09:33:59;15.82;;;8.90;;
63312;SDS011;49442;45.640;13.812;2023-09-12T09:36:26;16.40;;;10.65;;
63312;SDS011;49442;45.640;13.812;2023-09-12T09:38:53;21.90;;;9.35;;
63312;SDS011;49442;45.640;13.812;2023-09-12T09:41:20;12.05;;;9.35;;
63312;SDS011;49442;45.640;13.812;2023-09-12T09:43:49;11.30;;;9.13;;
63312;SDS011;49442;45.640;13.812;2023-09-12T09:46:18;12.85;;;9.52;;
63312;SDS011;49442;45.640;13.812;2023-09-12T09:48:50;21.45;;;9.38;;
63312;SDS011;49442;45.640;13.812;2023-09-12T09:51:17;15.52;;;8.35;;
63312;SDS011;49442;45.640;13.812;2023-09-12T09:53:43;17.77;;;9.93;;
63312;SDS011;49442;45.640;13.812;2023-09-12T10:01:19;17.90;;;10.07;;
63312;SDS011;49442;45.640;13.812;2023-09-12T10:03:46;14.40;;;9.73;;
63312;SDS011;49442;45.640;13.812;2023-09-12T10:06:16;15.88;;;10.02;;
63312;SDS011;49442;45.640;13.812;2023-09-12T10:08:43;22.63;;;11.00;;
63312;SDS011;49442;45.640;13.812;2023-09-12T10:11:14;13.25;;;9.70;;
63312;SDS011;49442;45.640;13.812;2023-09-12T10:13:43;16.80;;;9.60;;
63312;SDS011;49442;45.640;13.812;2023-09-12T10:16:30;13.82;;;9.70;;
63312;SDS011;49442;45.640;13.812;2023-09-12T10:24:32;13.30;;;9.57;;
63312;SDS011;49442;45.640;13.812;2023-09-12T10:27:00;22.58;;;8.38;;
63312;SDS011;49442;45.640;13.812;2023-09-12T10:29:28;9.25;;;8.35;;
63312;SDS011;49442;45.640;13.812;2023-09-12T10:31:55;11.10;;;8.00;;
63312;SDS011;49442;45.640;13.812;2023-09-12T10:34:21;18.60;;;8.38;;
63312;SDS011;49442;45.640;13.812;2023-09-12T10:36:51;13.10;;;8.43;;
63312;SDS011;49442;45.640;13.812;2023-09-12T10:39:20;12.55;;;7.57;;
63312;SDS011;49442;45.640;13.812;2023-09-12T10:41:47;11.35;;;7.20;;
63312;SDS011;49442;45.640;13.812;2023-09-12T10:44:16;12.05;;;8.13;;
63312;SDS011;49442;45.640;13.812;2023-09-12T10:46:43;19.25;;;8.63;;
63312;SDS011;49442;45.640;13.812;2023-09-12T10:49:11;13.70;;;8.23;;
63312;SDS011;49442;45.640;13.812;2023-09-12T10:51:42;10.80;;;7.43;;
63312;SDS011;49442;45.640;13.812;2023-09-12T10:54:12;11.65;;;8.20;;
63312;SDS011;49442;45.640;13.812;2023-09-12T10:56:40;11.40;;;7.47;;
63312;SDS011;49442;45.640;13.812;2023-09-12T11:01:35;8.25;;;7.30;;
63312;SDS011;49442;45.640;13.812;2023-09-12T11:06:52;11.37;;;7.23;;
63312;SDS011;49442;45.640;13.812;2023-09-12T11:11:55;12.55;;;6.63;;
63312;SDS011;49442;45.640;13.812;2023-09-12T11:14:23;15.00;;;6.85;;
63312;SDS011;49442;45.640;13.812;2023-09-12T11:19:48;9.88;;;6.35;;
63312;SDS011;49442;45.640;13.812;2023-09-12T11:22:27;10.02;;;7.05;;
63312;SDS011;49442;45.640;13.812;2023-09-12T11:25:02;13.15;;;6.47;;
63312;SDS011;49442;45.640;13.812;2023-09-12T11:28:03;17.08;;;7.07;;
63312;SDS011;49442;45.640;13.812;2023-09-12T11:30:23;14.95;;;7.47;;
63312;SDS011;49442;45.640;13.812;2023-09-12T11:32:50;13.80;;;6.88;;
63312;SDS011;49442;45.640;13.812;2023-09-12T11:35:21;13.70;;;7.25;;
63312;SDS011;49442;45.640;13.812;2023-09-12T11:37:49;18.02;;;8.13;;
63312;SDS011;49442;45.640;13.812;2023-09-12T11:40:16;10.55;;;7.53;;
63312;SDS011;49442;45.640;13.812;2023-09-12T11:42:47;12.57;;;8.15;;
63312;SDS011;49442;45.640;13.812;2023-09-12T11:45:14;8.18;;;7.25;;
63312;SDS011;49442;45.640;13.812;2023-09-12T11:47:44;9.13;;;7.05;;
63312;SDS011;49442;45.640;13.812;2023-09-12T11:53:04;13.00;;;7.82;;
63312;SDS011;49442;45.640;13.812;2023-09-12T11:56:17;13.73;;;8.43;;
63312;SDS011;49442;45.640;13.812;2023-09-12T11:58:19;18.48;;;8.68;;
63312;SDS011;49442;45.640;13.812;2023-09-12T12:03:17;9.88;;;7.03;;
63312;SDS011;49442;45.640;13.812;2023-09-12T12:05:43;10.93;;;8.02;;
63312;SDS011;49442;45.640;13.812;2023-09-12T12:08:10;15.07;;;7.95;;
63312;SDS011;49442;45.640;13.812;2023-09-12T12:10:36;11.23;;;8.00;;
63312;SDS011;49442;45.640;13.812;2023-09-12T12:13:04;9.30;;;7.82;;
63312;SDS011;49442;45.640;13.812;2023-09-12T12:15:31;17.20;;;8.20;;
63312;SDS011;49442;45.640;13.812;2023-09-12T12:17:57;18.13;;;7.70;;
63312;SDS011;49442;45.640;13.812;2023-09-12T12:20:23;13.23;;;8.02;;
63312;SDS011;49442;45.640;13.812;2023-09-12T12:22:49;10.25;;;7.22;;
63312;SDS011;49442;45.640;13.812;2023-09-12T12:25:17;9.90;;;7.32;;
63312;SDS011;49442;45.640;13.812;2023-09-12T12:27:43;15.77;;;7.50;;
63312;SDS011;49442;45.640;13.812;2023-09-12T12:30:10;11.90;;;7.05;;
63312;SDS011;49442;45.640;13.812;2023-09-12T12:32:44;8.30;;;7.03;;
63312;SDS011;49442;45.640;13.812;2023-09-12T12:35:17;9.95;;;6.78;;
63312;SDS011;49442;45.640;13.812;2023-09-12T12:37:44;10.90;;;7.70;;
63312;SDS011;49442;45.640;13.812;2023-09-12T12:40:13;8.95;;;6.90;;
63312;SDS011;49442;45.640;13.812;2023-09-12T12:42:40;12.55;;;7.22;;
63312;SDS011;49442;45.640;13.812;2023-09-12T12:47:37;7.57;;;6.75;;
63312;SDS011;49442;45.640;13.812;2023-09-12T12:50:07;17.08;;;7.40;;
63312;SDS011;49442;45.640;13.812;2023-09-12T12:52:37;15.35;;;8.13;;
63312;SDS011;49442;45.640;13.812;2023-09-12T12:55:04;19.15;;;7.45;;
63312;SDS011;49442;45.640;13.812;2023-09-12T12:57:30;14.63;;;7.88;;
63312;SDS011;49442;45.640;13.812;2023-09-12T12:59:56;11.25;;;7.85;;
63312;SDS011;49442;45.640;13.812;2023-09-12T13:02:23;11.82;;;8.88;;
63312;SDS011;49442;45.640;13.812;2023-09-12T13:04:49;13.40;;;7.70;;
63312;SDS011;49442;45.640;13.812;2023-09-12T13:07:15;12.65;;;6.82;;
63312;SDS011;49442;45.640;13.812;2023-09-12T13:09:40;9.48;;;6.53;;
63312;SDS011;49442;45.640;13.812;2023-09-12T13:12:07;8.93;;;5.90;;
63312;SDS011;49442;45.640;13.812;2023-09-12T13:14:33;9.07;;;6.18;;
63312;SDS011;49442;45.640;13.812;2023-09-12T13:16:59;9.18;;;6.35;;
63312;SDS011;49442;45.640;13.812;2023-09-12T13:19:25;7.05;;;6.10;;
63312;SDS011;49442;45.640;13.812;2023-09-12T13:21:51;9.70;;;5.85;;
63312;SDS011;49442;45.640;13.812;2023-09-12T13:24:17;6.65;;;5.13;;
63312;SDS011;49442;45.640;13.812;2023-09-12T13:26:43;8.40;;;5.78;;
63312;SDS011;49442;45.640;13.812;2023-09-12T13:29:09;8.00;;;5.65;;
63312;SDS011;49442;45.640;13.812;2023-09-12T13:31:35;9.57;;;6.32;;
63312;SDS011;49442;45.640;13.812;2023-09-12T13:34:01;6.68;;;6.07;;
63312;SDS011;49442;45.640;13.812;2023-09-12T13:36:28;9.27;;;5.93;;
63312;SDS011;49442;45.640;13.812;2023-09-12T13:38:53;10.27;;;5.53;;
63312;SDS011;49442;45.640;13.812;2023-09-12T13:41:19;17.67;;;6.38;;
63312;SDS011;49442;45.640;13.812;2023-09-12T13:43:47;7.20;;;5.70;;
63312;SDS011;49442;45.640;13.812;2023-09-12T13:46:13;7.70;;;5.80;;
63312;SDS011;49442;45.640;13.812;2023-09-12T13:48:39;20.08;;;5.80;;
63312;SDS011;49442;45.640;13.812;2023-09-12T13:51:04;10.85;;;5.65;;
63312;SDS011;49442;45.640;13.812;2023-09-12T13:53:31;7.82;;;5.72;;
63312;SDS011;49442;45.640;13.812;2023-09-12T13:55:56;8.23;;;6.00;;
63312;SDS011;49442;45.640;13.812;2023-09-12T13:58:23;11.82;;;5.68;;
63312;SDS011;49442;45.640;13.812;2023-09-12T14:00:49;8.38;;;5.90;;
63312;SDS011;49442;45.640;13.812;2023-09-12T14:03:16;11.57;;;6.88;;
63312;SDS011;49442;45.640;13.812;2023-09-12T14:05:41;8.77;;;6.10;;
63312;SDS011;49442;45.640;13.812;2023-09-12T14:08:07;16.55;;;6.82;;
63312;SDS011;49442;45.640;13.812;2023-09-12T14:10:33;5.95;;;5.38;;
63312;SDS011;49442;45.640;13.812;2023-09-12T14:12:58;8.02;;;5.15;;
63312;SDS011;49442;45.640;13.812;2023-09-12T14:15:24;6.60;;;5.13;;
63312;SDS011;49442;45.640;13.812;2023-09-12T14:17:50;8.30;;;5.80;;
63312;SDS011;49442;45.640;13.812;2023-09-12T14:20:16;8.23;;;5.78;;
63312;SDS011;49442;45.640;13.812;2023-09-12T14:22:42;11.77;;;5.53;;
63312;SDS011;49442;45.640;13.812;2023-09-12T14:25:10;6.78;;;5.63;;
63312;SDS011;49442;45.640;13.812;2023-09-12T14:27:40;7.53;;;5.57;;
63312;SDS011;49442;45.640;13.812;2023-09-12T14:30:07;16.25;;;6.05;;
63312;SDS011;49442;45.640;13.812;2023-09-12T14:32:33;8.02;;;5.50;;
63312;SDS011;49442;45.640;13.812;2023-09-12T14:34:59;11.88;;;5.47;;
63312;SDS011;49442;45.640;13.812;2023-09-12T14:37:25;9.10;;;4.93;;
63312;SDS011;49442;45.640;13.812;2023-09-12T14:39:52;8.27;;;5.45;;
63312;SDS011;49442;45.640;13.812;2023-09-12T14:42:20;6.30;;;5.05;;
63312;SDS011;49442;45.640;13.812;2023-09-12T14:44:46;8.48;;;5.50;;
63312;SDS011;49442;45.640;13.812;2023-09-12T14:47:11;8.23;;;5.43;;
63312;SDS011;49442;45.640;13.812;2023-09-12T14:49:37;14.10;;;5.50;;
63312;SDS011;49442;45.640;13.812;2023-09-12T14:52:03;6.22;;;4.95;;
63312;SDS011;49442;45.640;13.812;2023-09-12T14:54:29;7.90;;;5.80;;